createdAt,value
2023-02-08T00:04:40.674Z,36.72
2023-02-08T00:10:08.096Z,40.25
2023-02-08T00:15:35.964Z,41.85
2023-02-08T00:21:17.359Z,44.17
2023-02-08T00:26:44.918Z,44.45
2023-02-08T00:32:12.781Z,43.90
2023-02-08T00:37:39.678Z,42.40
2023-02-08T00:43:07.253Z,39.88
2023-02-08T00:48:35.826Z,44.63
2023-02-08T00:54:03.110Z,46.60
2023-02-08T00:59:30.719Z,44.92
2023-02-08T01:04:57.877Z,54.38
2023-02-08T01:10:24.916Z,49.55
2023-02-08T01:15:52.031Z,27.88
2023-02-08T01:21:23.035Z,27.30
2023-02-08T01:26:50.997Z,25.20
2023-02-08T01:32:18.091Z,23.65
2023-02-08T01:37:46.050Z,27.80
2023-02-08T01:43:28.480Z,27.80
2023-02-08T01:48:59.188Z,38.80
2023-02-08T01:54:36.978Z,22.38
2023-02-08T02:00:17.655Z,23.05
2023-02-08T02:05:50.227Z,22.25
2023-02-08T02:11:18.789Z,20.63
2023-02-08T02:16:45.816Z,23.90
2023-02-08T02:22:27.747Z,25.17
2023-02-08T02:34:11.190Z,24.70
2023-02-08T02:39:51.355Z,29.25
2023-02-08T02:45:19.131Z,26.75
2023-02-08T02:50:55.332Z,34.72
2023-02-08T02:56:27.970Z,29.10
2023-02-08T03:01:56.620Z,25.47
2023-02-08T03:07:54.174Z,21.80
2023-02-08T03:13:52.844Z,28.08
2023-02-08T03:20:01.266Z,22.10
2023-02-08T03:25:37.629Z,24.63
2023-02-08T03:31:31.355Z,19.65
2023-02-08T03:37:05.003Z,17.02
2023-02-08T03:42:35.980Z,23.70
2023-02-08T03:48:06.618Z,31.92
2023-02-08T03:53:39.545Z,36.10
2023-02-08T04:04:46.741Z,32.20
2023-02-08T04:10:14.341Z,36.38
2023-02-08T04:15:41.366Z,32.90
2023-02-08T04:21:08.428Z,32.10
2023-02-08T04:26:36.535Z,39.65
2023-02-08T04:32:05.241Z,33.67
2023-02-08T04:37:32.821Z,39.35
2023-02-08T04:43:00.118Z,37.97
2023-02-08T04:48:27.586Z,35.65
2023-02-08T04:53:55.398Z,39.65
2023-02-08T04:59:22.905Z,38.00
2023-02-08T05:04:50.887Z,41.47
2023-02-08T05:10:18.744Z,41.33
2023-02-08T05:15:47.358Z,43.88
2023-02-08T05:21:14.305Z,43.10
2023-02-08T05:26:42.206Z,50.35
2023-02-08T05:32:09.600Z,46.10
2023-02-08T05:37:37.592Z,39.28
2023-02-08T05:43:04.749Z,41.67
2023-02-08T05:48:32.629Z,42.28
2023-02-08T05:53:59.494Z,42.05
2023-02-08T05:59:26.782Z,45.53
2023-02-08T06:04:54.674Z,51.05
2023-02-08T06:10:21.666Z,54.83
2023-02-08T06:15:48.683Z,56.63
2023-02-08T06:21:15.735Z,57.05
2023-02-08T06:26:44.622Z,57.90
2023-02-08T06:32:11.914Z,47.25
2023-02-08T06:37:39.495Z,57.88
2023-02-08T06:43:06.533Z,57.10
2023-02-08T06:48:34.697Z,56.97
2023-02-08T06:54:01.286Z,58.13
2023-02-08T06:59:28.586Z,51.53
2023-02-08T07:04:55.834Z,51.78
2023-02-08T07:10:23.110Z,55.97
2023-02-08T07:15:50.589Z,53.70
2023-02-08T07:21:17.768Z,58.10
2023-02-08T07:26:44.890Z,57.95
2023-02-08T07:32:13.909Z,79.53
2023-02-08T07:37:41.994Z,70.22
2023-02-08T07:43:09.790Z,47.67
2023-02-08T07:48:46.757Z,61.45
2023-02-08T07:54:13.774Z,56.47
2023-02-08T07:59:40.723Z,50.35
2023-02-08T08:05:08.982Z,48.95
2023-02-08T08:10:37.394Z,51.13
2023-02-08T08:16:05.324Z,49.40
2023-02-08T08:21:32.721Z,42.65
2023-02-08T08:26:59.723Z,63.60
2023-02-08T08:32:27.363Z,61.58
2023-02-08T08:37:55.146Z,58.60
2023-02-08T08:43:23.100Z,53.15
2023-02-08T08:48:51.934Z,61.20
2023-02-08T08:54:19.852Z,54.38
2023-02-08T08:59:47.163Z,61.20
2023-02-08T09:05:14.953Z,65.82
2023-02-08T09:10:42.680Z,51.00
2023-02-08T09:16:14.513Z,44.08
2023-02-08T09:21:42.395Z,58.50
2023-02-08T09:27:09.997Z,61.17
2023-02-08T09:32:39.998Z,53.90
2023-02-08T09:38:07.136Z,63.53
2023-02-08T09:44:09.573Z,52.35
2023-02-08T09:49:43.306Z,59.17
2023-02-08T09:55:18.372Z,59.70
2023-02-08T10:00:50.978Z,66.05
2023-02-08T10:06:20.604Z,60.00
2023-02-08T10:12:17.822Z,52.25
2023-02-08T10:18:10.745Z,58.05
2023-02-08T10:23:54.206Z,45.90
2023-02-08T10:29:40.917Z,52.53
2023-02-08T10:35:13.912Z,53.17
2023-02-08T10:46:30.289Z,58.35
2023-02-08T10:51:57.163Z,50.00
2023-02-08T10:57:29.056Z,51.15
2023-02-08T11:03:00.998Z,55.30
2023-02-08T11:08:29.060Z,72.15
2023-02-08T11:14:09.937Z,55.15
2023-02-08T11:19:46.563Z,59.90
2023-02-08T11:25:38.840Z,63.45
2023-02-08T11:31:18.347Z,63.88
2023-02-08T11:36:47.951Z,74.15
2023-02-08T11:42:31.573Z,66.13
2023-02-08T11:48:05.230Z,74.15
2023-02-08T11:53:48.284Z,67.68
2023-02-08T12:04:43.003Z,71.60
2023-02-08T12:10:38.211Z,68.70
2023-02-08T12:16:34.415Z,71.72
2023-02-08T12:22:10.741Z,67.30
2023-02-08T12:28:00.310Z,73.05
2023-02-08T12:33:46.031Z,60.45
2023-02-08T12:39:47.597Z,59.25
2023-02-08T12:46:00.750Z,71.20
2023-02-08T12:51:48.705Z,78.10
2023-02-08T12:57:21.390Z,69.88
2023-02-08T13:02:49.593Z,66.63
2023-02-08T13:08:51.898Z,66.13
2023-02-08T13:14:29.213Z,67.30
2023-02-08T13:20:00.823Z,61.58
2023-02-08T13:25:34.015Z,66.50
2023-02-08T13:36:35.484Z,69.65
2023-02-08T13:42:06.179Z,63.25
2023-02-08T13:47:46.463Z,68.15
2023-02-08T13:53:15.183Z,67.68
2023-02-08T13:59:29.973Z,65.90
2023-02-08T14:05:38.635Z,74.47
2023-02-08T14:11:36.619Z,86.38
2023-02-08T14:17:25.491Z,76.88
2023-02-08T14:23:05.853Z,87.28
2023-02-08T14:28:40.492Z,92.40
2023-02-08T14:34:21.968Z,88.53
2023-02-08T14:39:53.170Z,76.25
2023-02-08T14:45:33.079Z,77.00
2023-02-08T14:51:10.001Z,76.13
2023-02-08T14:57:08.456Z,70.60
2023-02-08T15:02:43.662Z,75.32
2023-02-08T15:08:13.264Z,71.00
2023-02-08T15:13:41.919Z,75.78
2023-02-08T15:19:19.090Z,81.13
2023-02-08T15:24:55.904Z,82.03
2023-02-08T15:30:38.340Z,75.55
2023-02-08T15:36:09.384Z,77.90
2023-02-08T15:41:38.534Z,79.45
2023-02-08T15:47:16.902Z,90.57
2023-02-08T15:52:48.951Z,97.70
2023-02-08T15:58:32.118Z,86.28
2023-02-08T16:04:06.588Z,93.07
2023-02-08T16:09:35.747Z,97.97
2023-02-08T16:15:03.141Z,91.88
2023-02-08T16:20:34.381Z,93.18
2023-02-08T16:26:35.393Z,95.22
2023-02-08T16:32:12.941Z,109.10
2023-02-08T16:37:40.836Z,118.63
2023-02-08T16:43:33.047Z,126.82
2023-02-08T16:49:00.224Z,122.07
2023-02-08T16:54:28.654Z,121.05
2023-02-08T16:59:56.863Z,114.18
2023-02-08T17:05:28.713Z,112.97
2023-02-08T17:10:59.328Z,118.83
2023-02-08T17:16:29.599Z,110.38
2023-02-08T17:21:57.580Z,104.95
2023-02-08T17:27:25.958Z,111.93
2023-02-08T17:32:56.606Z,122.25
2023-02-08T17:38:24.194Z,122.25
2023-02-08T17:43:57.140Z,116.93
2023-02-08T17:49:24.464Z,131.15
2023-02-08T17:54:52.367Z,137.73
2023-02-08T18:00:22.414Z,130.00
2023-02-08T18:05:57.140Z,126.10
2023-02-08T18:11:26.009Z,140.63
2023-02-08T18:16:53.495Z,132.95
2023-02-08T18:22:22.468Z,165.43
2023-02-08T18:27:50.579Z,166.93
2023-02-08T18:33:18.231Z,155.45
2023-02-08T18:38:48.864Z,143.25
2023-02-08T18:44:17.373Z,121.53
2023-02-08T18:49:44.459Z,132.10
2023-02-08T18:55:11.605Z,131.23
2023-02-08T19:00:39.419Z,127.32
2023-02-08T19:06:12.354Z,140.77
2023-02-08T19:17:07.544Z,125.55
2023-02-08T19:22:34.845Z,133.23
2023-02-08T19:28:02.679Z,118.25
2023-02-08T19:33:32.966Z,130.13
2023-02-08T19:39:02.685Z,128.10
2023-02-08T19:44:31.006Z,135.38
2023-02-08T19:49:58.603Z,133.27
2023-02-08T19:55:25.644Z,130.38
2023-02-08T20:00:53.699Z,122.10
2023-02-08T20:06:30.724Z,130.85
2023-02-08T20:11:58.210Z,129.07
2023-02-08T20:17:25.554Z,145.85
2023-02-08T20:22:53.304Z,138.90
2023-02-08T20:28:22.538Z,160.95
2023-02-08T20:33:51.838Z,158.93
2023-02-08T20:39:20.939Z,157.43
2023-02-08T20:44:48.788Z,161.98
2023-02-08T20:50:19.453Z,171.00
2023-02-08T20:55:47.886Z,153.70
2023-02-08T21:01:21.386Z,173.13
2023-02-08T21:06:49.556Z,174.07
2023-02-08T21:12:17.054Z,174.10
2023-02-08T21:17:45.012Z,162.30
2023-02-08T21:23:13.144Z,167.98
2023-02-08T21:28:41.795Z,170.82
2023-02-08T21:34:08.646Z,168.25
2023-02-08T21:39:36.209Z,158.18
2023-02-08T21:45:04.512Z,167.73
2023-02-08T21:50:50.640Z,180.80
2023-02-08T21:56:17.799Z,176.43
2023-02-08T22:01:45.475Z,171.45
2023-02-08T22:07:13.098Z,186.13
2023-02-08T22:12:42.176Z,182.43
2023-02-08T22:18:10.313Z,166.82
2023-02-08T22:23:38.397Z,170.18
2023-02-08T22:29:05.669Z,176.52
2023-02-08T22:34:33.505Z,168.55
2023-02-08T22:40:01.128Z,171.20
2023-02-08T22:45:27.912Z,182.90
2023-02-08T22:50:55.262Z,170.65
2023-02-08T22:56:23.214Z,169.85
2023-02-08T23:01:51.106Z,180.32
2023-02-08T23:07:18.293Z,214.80
2023-02-08T23:12:46.003Z,197.52
2023-02-08T23:18:12.884Z,192.77
2023-02-08T23:23:40.948Z,203.90
2023-02-08T23:29:08.680Z,180.55
2023-02-08T23:34:36.311Z,189.65
2023-02-08T23:40:05.957Z,193.25
2023-02-08T23:45:33.726Z,164.57
2023-02-08T23:51:03.792Z,176.07
2023-02-08T23:56:34.933Z,168.82
